Time;durP1;ratioP1;P1;durP2;ratioP2;P2;SDS_P1;SDS_P2;PMS_P1;PMS_P2;Temp;Humidity;BMP_temperature;BMP_pressure;BME280_temperature;BME280_humidity;BME280_pressure;Samples;Min_cycle;Max_cycle;Signal;HPM_P1;HPM_P2
2022/03/16 00:01:00;;;;;;;45.85;27.85;;;-0.50;99.90;;;;;;5188782;28;20381;-73
2022/03/16 00:03:31;;;;;;;41.90;26.13;;;0.00;99.90;;;;;;5171242;28;20029;-74
2022/03/16 00:06:02;;;;;;;40.25;26.42;;;-0.10;99.90;;;;;;5188837;28;20160;-73
2022/03/16 00:08:33;;;;;;;45.95;28.20;;;-0.30;99.90;;;;;;5188802;28;20064;-74
2022/03/16 00:11:04;;;;;;;44.35;28.75;;;-0.40;99.90;;;;;;5188428;28;20036;-74
2022/03/16 00:13:35;;;;;;;44.28;28.10;;;-0.30;99.90;;;;;;5188818;28;20373;-74
2022/03/16 00:16:06;;;;;;;41.33;27.08;;;-0.10;99.90;;;;;;5171081;28;20030;-73
2022/03/16 00:18:37;;;;;;;42.42;25.60;;;-0.10;99.90;;;;;;5188473;28;20509;-73
2022/03/16 00:21:08;;;;;;;39.60;23.67;;;-0.20;99.90;;;;;;5171054;28;20132;-74
2022/03/16 00:23:39;;;;;;;41.10;23.73;;;-0.50;99.90;;;;;;5188529;28;20113;-73
2022/03/16 00:26:10;;;;;;;47.67;26.15;;;-0.60;99.90;;;;;;5188257;28;20029;-74
2022/03/16 00:28:41;;;;;;;40.60;24.08;;;-0.40;99.90;;;;;;5188435;28;20033;-73
2022/03/16 00:31:11;;;;;;;42.97;25.08;;;-0.50;99.90;;;;;;5188174;28;20049;-73
2022/03/16 00:33:42;;;;;;;43.33;26.98;;;-0.70;99.90;;;;;;5170546;28;20022;-74
2022/03/16 00:36:13;;;;;;;46.15;27.13;;;-0.70;99.90;;;;;;5188050;28;20022;-74
2022/03/16 00:38:44;;;;;;;47.88;26.88;;;-0.70;99.90;;;;;;5170367;28;20487;-74
2022/03/16 00:41:16;;;;;;;48.45;28.52;;;-0.70;99.90;;;;;;5188203;28;20053;-73
2022/03/16 00:43:47;;;;;;;50.38;28.88;;;-0.40;99.90;;;;;;5188278;28;20030;-73
2022/03/16 00:46:17;;;;;;;49.17;30.13;;;-0.50;99.90;;;;;;5188076;28;20033;-73
2022/03/16 00:48:48;;;;;;;47.97;28.13;;;-0.70;99.90;;;;;;5188263;28;20022;-73
2022/03/16 00:51:20;;;;;;;47.67;28.77;;;-0.50;99.90;;;;;;5187553;28;20057;-73
2022/03/16 00:53:51;;;;;;;46.60;26.88;;;-0.60;99.90;;;;;;5187989;28;20101;-74
2022/03/16 00:56:22;;;;;;;46.22;26.98;;;-0.70;99.90;;;;;;5187948;28;20109;-73
2022/03/16 00:58:53;;;;;;;47.10;27.17;;;-0.40;99.90;;;;;;5169865;28;20100;-73
2022/03/16 01:01:23;;;;;;;52.90;27.33;;;-0.60;99.90;;;;;;5187917;28;20105;-73
2022/03/16 01:03:56;;;;;;;42.03;26.55;;;-0.70;99.90;;;;;;5187698;28;20061;-73
2022/03/16 01:06:27;;;;;;;43.78;25.83;;;-0.70;99.90;;;;;;5187617;28;20026;-73
2022/03/16 01:08:58;;;;;;;41.85;25.45;;;-0.40;99.90;;;;;;5187537;28;20365;-74
2022/03/16 01:11:29;;;;;;;40.67;24.70;;;-0.50;99.90;;;;;;5187831;28;20026;-74
2022/03/16 01:14:00;;;;;;;47.35;25.23;;;-0.60;99.90;;;;;;5187557;28;20026;-74
2022/03/16 01:16:32;;;;;;;45.20;25.55;;;-0.70;99.90;;;;;;5187586;28;20662;-74
2022/03/16 01:19:03;;;;;;;49.75;27.50;;;-1.00;99.90;;;;;;5187483;28;20026;-74
2022/03/16 01:21:34;;;;;;;50.42;29.27;;;-0.70;99.90;;;;;;5187468;28;20022;-75
2022/03/16 01:24:06;;;;;;;51.88;30.10;;;-0.80;99.90;;;;;;5187189;28;20033;-74
2022/03/16 01:26:37;;;;;;;53.35;31.63;;;-0.80;99.90;;;;;;5186550;28;20080;-73
2022/03/16 01:29:08;;;;;;;54.15;31.95;;;-0.70;99.90;;;;;;5187224;28;20033;-74
2022/03/16 01:31:38;;;;;;;51.85;31.73;;;-0.40;99.90;;;;;;5187365;28;20436;-73
2022/03/16 01:34:09;;;;;;;52.38;30.50;;;-0.80;99.90;;;;;;5187202;28;20026;-74
2022/03/16 01:36:40;;;;;;;50.15;29.48;;;-0.60;99.90;;;;;;5187027;28;20492;-73
2022/03/16 01:39:11;;;;;;;48.47;30.40;;;-0.80;99.90;;;;;;5187070;28;20113;-73
2022/03/16 01:41:42;;;;;;;48.30;29.63;;;-0.90;99.90;;;;;;5169617;28;20075;-74
2022/03/16 01:44:13;;;;;;;45.83;29.25;;;-0.60;99.90;;;;;;5187019;28;20079;-74
2022/03/16 01:46:43;;;;;;;48.80;29.70;;;-1.00;99.90;;;;;;5187069;28;20612;-73
2022/03/16 01:49:14;;;;;;;47.85;31.13;;;-1.10;99.90;;;;;;5186475;28;20034;-74
2022/03/16 01:51:45;;;;;;;54.97;30.63;;;-0.40;99.90;;;;;;5169108;28;20053;-73
2022/03/16 01:54:17;;;;;;;48.72;29.90;;;-0.50;99.90;;;;;;5186804;28;20050;-74
2022/03/16 01:56:48;;;;;;;47.53;30.23;;;-0.70;99.90;;;;;;5186619;28;20018;-73
2022/03/16 01:59:19;;;;;;;45.33;27.73;;;-0.90;99.90;;;;;;5186494;28;20534;-74
2022/03/16 02:01:50;;;;;;;51.97;31.02;;;-0.80;99.90;;;;;;5186938;28;20026;-74
2022/03/16 02:04:20;;;;;;;50.08;29.95;;;-0.80;99.90;;;;;;5186750;28;20052;-74
2022/03/16 02:06:51;;;;;;;50.08;31.33;;;-0.50;99.90;;;;;;5186516;28;20029;-74
2022/03/16 02:09:23;;;;;;;52.42;31.58;;;-0.70;99.90;;;;;;5169168;28;20033;-74
2022/03/16 02:11:53;;;;;;;55.88;33.67;;;-0.80;99.90;;;;;;5186727;28;20021;-74
2022/03/16 02:14:36;;;;;;;52.92;32.30;;;-0.90;99.90;;;;;;5186801;28;20398;-74
2022/03/16 02:17:12;;;;;;;58.50;32.90;;;-0.90;99.90;;;;;;5184185;28;20030;-75
2022/03/16 02:19:50;;;;;;;53.55;32.17;;;-1.00;99.90;;;;;;5186511;28;20037;-75
2022/03/16 02:22:25;;;;;;;63.97;35.47;;;-0.90;99.90;;;;;;5186112;28;20057;-73
2022/03/16 02:24:56;;;;;;;59.53;35.55;;;-1.00;99.90;;;;;;5186342;28;20030;-74
2022/03/16 02:27:27;;;;;;;60.88;37.45;;;-1.20;99.90;;;;;;5168600;28;20076;-74
2022/03/16 02:29:58;;;;;;;58.00;36.22;;;-1.10;99.90;;;;;;5186290;28;20041;-75
2022/03/16 02:32:29;;;;;;;66.50;35.28;;;-0.90;99.90;;;;;;5186485;28;20057;-74
2022/03/16 02:35:00;;;;;;;68.07;38.55;;;-1.00;99.90;;;;;;5168610;28;20517;-75
2022/03/16 02:37:30;;;;;;;63.70;38.78;;;-1.10;99.90;;;;;;5186229;28;20033;-74
2022/03/16 02:40:01;;;;;;;59.72;36.20;;;-1.10;99.90;;;;;;5186360;28;20120;-74
2022/03/16 02:42:32;;;;;;;53.55;32.47;;;-0.80;99.90;;;;;;5186261;28;20373;-74
2022/03/16 02:45:07;;;;;;;53.88;32.67;;;-0.50;99.90;;;;;;5186196;28;20405;-74
2022/03/16 02:47:39;;;;;;;55.05;32.92;;;-0.60;99.90;;;;;;5168658;28;20433;-74
2022/03/16 02:50:12;;;;;;;54.65;31.98;;;-0.30;99.90;;;;;;5168441;28;20025;-74
2022/03/16 02:52:44;;;;;;;51.75;32.08;;;-0.50;99.90;;;;;;5168549;28;20022;-74
2022/03/16 02:55:15;;;;;;;53.53;31.00;;;-0.50;99.90;;;;;;5168130;28;20485;-73
2022/03/16 02:57:46;;;;;;;47.15;29.85;;;-0.40;99.90;;;;;;5168123;28;20026;-74
2022/03/16 03:00:18;;;;;;;55.10;32.08;;;-0.30;99.90;;;;;;5185586;28;20046;-74
2022/03/16 03:02:49;;;;;;;48.08;30.15;;;-0.20;99.90;;;;;;5186281;28;20022;-74
2022/03/16 03:05:20;;;;;;;52.08;30.55;;;-0.20;99.90;;;;;;5186018;28;20409;-75
2022/03/16 03:07:51;;;;;;;50.22;30.35;;;-0.30;99.90;;;;;;5168506;28;20163;-74
2022/03/16 03:10:22;;;;;;;48.78;29.55;;;-0.20;99.90;;;;;;5168370;28;20116;-74
2022/03/16 03:12:53;;;;;;;44.42;28.90;;;-0.10;99.90;;;;;;5168576;28;20149;-74
2022/03/16 03:15:24;;;;;;;52.60;28.35;;;0.00;99.90;;;;;;5185931;28;20053;-74
2022/03/16 03:17:55;;;;;;;49.03;27.63;;;-0.10;99.90;;;;;;5185824;28;20022;-74
2022/03/16 03:20:25;;;;;;;46.58;26.40;;;-0.30;99.90;;;;;;5168321;28;20116;-74
2022/03/16 03:22:56;;;;;;;52.42;29.13;;;-0.20;99.90;;;;;;5185465;28;20022;-73
2022/03/16 03:25:27;;;;;;;49.22;29.08;;;-0.10;99.90;;;;;;5185875;28;20076;-74
2022/03/16 03:27:58;;;;;;;51.30;29.13;;;0.00;99.90;;;;;;5185551;28;20022;-74
2022/03/16 03:30:29;;;;;;;48.45;28.70;;;-0.30;99.90;;;;;;5185893;28;20044;-73
2022/03/16 03:33:00;;;;;;;50.60;28.92;;;-0.50;99.90;;;;;;5168613;28;20026;-73
2022/03/16 03:35:31;;;;;;;55.13;31.00;;;-0.40;99.90;;;;;;5189550;28;20449;-74
2022/03/16 03:38:01;;;;;;;59.83;32.55;;;-0.70;99.90;;;;;;5171822;28;20489;-74
2022/03/16 03:40:32;;;;;;;58.30;29.92;;;-0.50;99.90;;;;;;5188963;28;20040;-74
2022/03/16 03:43:03;;;;;;;58.45;32.10;;;-0.50;99.90;;;;;;5171743;28;20022;-74
2022/03/16 03:45:34;;;;;;;63.17;33.95;;;-0.40;99.90;;;;;;5171546;28;20026;-74
2022/03/16 03:48:05;;;;;;;67.65;34.90;;;-0.70;99.90;;;;;;5189099;28;20048;-74
2022/03/16 03:50:35;;;;;;;69.18;37.65;;;-0.80;99.90;;;;;;5189178;28;20092;-74
2022/03/16 03:53:06;;;;;;;68.45;37.15;;;-0.80;99.90;;;;;;5189107;28;20061;-73
2022/03/16 03:55:37;;;;;;;69.75;38.42;;;-0.60;99.90;;;;;;5171456;28;20030;-73
2022/03/16 03:58:08;;;;;;;70.75;35.72;;;-0.40;99.90;;;;;;5188755;28;20080;-75
2022/03/16 04:00:39;;;;;;;67.18;35.03;;;-0.70;99.90;;;;;;5189065;28;20053;-74
2022/03/16 04:03:09;;;;;;;72.63;37.33;;;-0.50;99.90;;;;;;5188438;28;20538;-74
2022/03/16 04:05:40;;;;;;;71.80;41.40;;;-0.70;99.90;;;;;;5188642;28;20026;-74
2022/03/16 04:08:11;;;;;;;70.40;38.13;;;-0.70;99.90;;;;;;5188817;28;20029;-74
2022/03/16 04:10:42;;;;;;;65.90;36.08;;;-0.70;99.90;;;;;;5188829;28;20026;-74
2022/03/16 04:13:13;;;;;;;65.55;37.60;;;-0.60;99.90;;;;;;5171059;28;20026;-74
2022/03/16 04:15:43;;;;;;;64.20;36.08;;;-0.60;99.90;;;;;;5188553;28;20462;-74
2022/03/16 04:18:14;;;;;;;70.45;37.28;;;-1.10;99.90;;;;;;5188643;28;20064;-74
2022/03/16 04:20:45;;;;;;;68.72;37.45;;;-0.90;99.90;;;;;;5188725;28;20029;-74
2022/03/16 04:23:16;;;;;;;79.55;42.75;;;-0.60;99.90;;;;;;5170870;28;20513;-74
2022/03/16 04:25:47;;;;;;;73.35;41.95;;;-0.60;99.90;;;;;;5188029;28;20113;-74
2022/03/16 04:28:18;;;;;;;74.10;41.65;;;-0.90;99.90;;;;;;5188407;28;20034;-74
2022/03/16 04:30:49;;;;;;;79.88;40.85;;;-0.70;99.90;;;;;;5188577;28;20026;-75
2022/03/16 04:33:19;;;;;;;80.97;41.15;;;-0.70;99.90;;;;;;5188346;28;20088;-74
2022/03/16 04:35:50;;;;;;;84.53;44.72;;;-0.60;99.90;;;;;;5188450;28;20037;-74
2022/03/16 04:38:21;;;;;;;90.60;47.38;;;-0.40;99.90;;;;;;5187971;28;20108;-74
2022/03/16 04:40:52;;;;;;;70.03;38.78;;;-0.40;99.90;;;;;;5188123;28;20355;-74
2022/03/16 04:43:23;;;;;;;77.13;41.67;;;-0.80;99.90;;;;;;5188016;28;20025;-74
2022/03/16 04:45:54;;;;;;;79.07;41.45;;;-0.80;99.90;;;;;;5187634;28;20024;-74
2022/03/16 04:48:25;;;;;;;79.78;42.95;;;-0.70;99.90;;;;;;5170327;28;20047;-74
2022/03/16 04:50:55;;;;;;;86.55;45.78;;;-0.70;99.90;;;;;;5170398;28;20184;-74
2022/03/16 04:53:26;;;;;;;81.15;45.13;;;-0.70;99.90;;;;;;5187467;28;20026;-74
2022/03/16 04:55:57;;;;;;;78.13;43.10;;;-0.50;99.90;;;;;;5170254;28;20037;-74
2022/03/16 04:58:28;;;;;;;84.68;47.70;;;-0.90;99.90;;;;;;5169969;28;20042;-74
2022/03/16 05:00:59;;;;;;;92.13;48.00;;;-0.80;99.90;;;;;;5186284;28;20135;-75
2022/03/16 05:03:30;;;;;;;97.50;50.15;;;-0.60;99.90;;;;;;5186293;28;20415;-74
2022/03/16 05:06:00;;;;;;;92.72;47.78;;;-0.50;99.90;;;;;;5169953;28;20018;-74
2022/03/16 05:08:35;;;;;;;90.00;48.10;;;-0.30;99.90;;;;;;5187202;28;20375;-75
2022/03/16 05:11:06;;;;;;;101.53;53.10;;;-0.40;99.90;;;;;;5187319;28;20501;-75
2022/03/16 05:13:37;;;;;;;87.03;45.97;;;-0.60;99.90;;;;;;5187463;28;20032;-75
2022/03/16 05:16:08;;;;;;;96.60;51.10;;;-0.50;99.90;;;;;;5187488;28;20056;-74
2022/03/16 05:18:40;;;;;;;96.28;49.13;;;-0.70;99.90;;;;;;5187139;28;20496;-74
2022/03/16 05:21:11;;;;;;;119.70;60.85;;;-0.60;99.90;;;;;;5187145;28;20423;-76
2022/03/16 05:23:42;;;;;;;105.13;51.80;;;-0.40;99.90;;;;;;5169567;28;20021;-75
2022/03/16 05:26:13;;;;;;;99.88;50.88;;;-0.40;99.90;;;;;;5187377;28;20045;-74
2022/03/16 05:28:44;;;;;;;91.93;49.78;;;-0.50;99.90;;;;;;5187091;28;20034;-74
2022/03/16 05:31:15;;;;;;;92.68;49.20;;;-0.50;99.90;;;;;;5186717;28;20033;-75
2022/03/16 05:33:46;;;;;;;98.40;48.30;;;-0.40;99.90;;;;;;5186899;28;20030;-74
2022/03/16 05:36:16;;;;;;;93.50;50.28;;;-0.30;99.90;;;;;;5169314;28;20524;-73
2022/03/16 05:38:47;;;;;;;86.57;49.85;;;-0.40;99.90;;;;;;5169133;28;20076;-74
2022/03/16 05:41:18;;;;;;;96.05;49.70;;;-0.50;99.90;;;;;;5187025;28;20483;-74
2022/03/16 05:43:49;;;;;;;93.93;50.05;;;-0.30;99.90;;;;;;5187070;28;20132;-74
2022/03/16 05:46:20;;;;;;;98.45;54.42;;;-0.30;99.90;;;;;;5169106;28;20071;-74
2022/03/16 05:48:51;;;;;;;106.70;55.47;;;-0.40;99.90;;;;;;5168872;28;20512;-75
2022/03/16 05:51:21;;;;;;;117.93;57.88;;;-0.40;99.90;;;;;;5168073;28;20069;-76
2022/03/16 05:53:52;;;;;;;104.47;51.78;;;-0.20;99.90;;;;;;5148787;28;20378;-75
2022/03/16 05:56:23;;;;;;;112.38;58.35;;;-0.20;99.90;;;;;;5165168;28;20052;-74
2022/03/16 05:58:54;;;;;;;98.68;53.20;;;-0.30;99.90;;;;;;5174756;28;20045;-74
2022/03/16 06:01:25;;;;;;;101.30;53.50;;;-0.20;99.90;;;;;;5186631;28;20160;-76
2022/03/16 06:03:55;;;;;;;102.53;55.50;;;-0.10;99.90;;;;;;5183420;28;20018;-75
2022/03/16 06:06:29;;;;;;;118.85;61.60;;;0.10;99.90;;;;;;5185304;28;20034;-75
2022/03/16 06:09:14;;;;;;;111.38;56.67;;;0.00;99.90;;;;;;5182192;28;20493;-75
2022/03/16 06:11:46;;;;;;;107.40;55.80;;;0.10;99.90;;;;;;5165893;28;20543;-74
2022/03/16 06:14:17;;;;;;;110.47;59.97;;;0.20;99.90;;;;;;5184430;28;20496;-76
2022/03/16 06:16:48;;;;;;;110.97;63.35;;;0.20;99.90;;;;;;5185003;28;20026;-75
2022/03/16 06:19:20;;;;;;;114.35;59.13;;;0.30;99.90;;;;;;5168242;28;20038;-72
2022/03/16 06:21:51;;;;;;;118.28;62.72;;;0.30;99.90;;;;;;5168504;28;20511;-76
2022/03/16 06:24:22;;;;;;;118.68;63.95;;;0.30;99.90;;;;;;5184506;28;20164;-76
2022/03/16 06:26:53;;;;;;;123.72;65.25;;;0.30;99.90;;;;;;5185896;28;20026;-76
2022/03/16 06:29:23;;;;;;;124.63;69.47;;;0.40;99.90;;;;;;5185846;28;20088;-76
2022/03/16 06:31:54;;;;;;;115.65;61.90;;;0.50;99.90;;;;;;5185801;28;20056;-76
2022/03/16 06:34:25;;;;;;;120.82;66.85;;;0.40;99.90;;;;;;5185694;28;20018;-76
2022/03/16 06:36:56;;;;;;;115.68;63.78;;;0.60;99.90;;;;;;5180608;28;20026;-76
2022/03/16 06:39:27;;;;;;;100.90;57.38;;;0.60;99.90;;;;;;5184525;28;20038;-75
2022/03/16 06:41:58;;;;;;;100.25;54.85;;;0.60;99.90;;;;;;5185874;28;20482;-75
2022/03/16 06:44:29;;;;;;;116.43;64.65;;;0.70;99.90;;;;;;5168063;28;20084;-76
2022/03/16 06:47:00;;;;;;;108.00;59.50;;;0.50;99.90;;;;;;5185579;28;20018;-75
2022/03/16 06:49:31;;;;;;;107.70;59.75;;;0.60;99.90;;;;;;5184834;28;20034;-75
2022/03/16 06:52:02;;;;;;;70.80;40.38;;;0.80;99.90;;;;;;5168109;28;20046;-73
2022/03/16 06:54:33;;;;;;;92.88;41.40;;;1.00;99.90;;;;;;5185448;28;20030;-74
2022/03/16 06:57:04;;;;;;;68.85;38.00;;;1.30;99.90;;;;;;5185471;28;20030;-74
2022/03/16 06:59:35;;;;;;;62.70;37.88;;;1.40;99.90;;;;;;5185157;28;20057;-74
2022/03/16 07:02:06;;;;;;;63.67;35.72;;;2.60;99.90;;;;;;5185451;28;20022;-74
2022/03/16 07:04:37;;;;;;;58.75;34.53;;;1.90;99.90;;;;;;5167826;28;20166;-74
2022/03/16 07:07:08;;;;;;;63.17;36.58;;;1.90;99.90;;;;;;5186031;28;20454;-74
2022/03/16 07:09:38;;;;;;;71.38;39.50;;;2.30;99.90;;;;;;5189058;28;20040;-74
2022/03/16 07:12:09;;;;;;;54.83;31.73;;;2.20;99.90;;;;;;5189071;28;20048;-75
2022/03/16 07:14:40;;;;;;;62.28;33.70;;;2.70;99.90;;;;;;5189476;28;20369;-74
2022/03/16 07:17:11;;;;;;;56.33;33.13;;;2.60;99.90;;;;;;5171228;28;20117;-73
2022/03/16 07:19:42;;;;;;;56.35;32.42;;;2.60;99.90;;;;;;5189339;28;20056;-74
2022/03/16 07:22:12;;;;;;;54.40;31.77;;;3.00;99.90;;;;;;5189194;28;20022;-73
2022/03/16 07:24:43;;;;;;;53.15;31.70;;;3.30;99.90;;;;;;5188816;28;20029;-75
2022/03/16 07:27:14;;;;;;;52.08;30.70;;;3.50;99.90;;;;;;5188596;28;20048;-76
2022/03/16 07:29:45;;;;;;;51.15;32.40;;;3.60;99.90;;;;;;5171323;28;20041;-75
2022/03/16 07:32:16;;;;;;;55.17;31.60;;;3.60;99.90;;;;;;5188626;28;20014;-76
2022/03/16 07:34:47;;;;;;;52.88;31.52;;;3.60;99.90;;;;;;5188614;28;20038;-76
2022/03/16 07:37:19;;;;;;;49.78;30.23;;;3.60;99.90;;;;;;5170925;28;20385;-76
2022/03/16 07:39:50;;;;;;;56.35;30.15;;;3.60;99.90;;;;;;5188598;28;20029;-74
2022/03/16 07:42:20;;;;;;;56.20;30.88;;;3.70;99.90;;;;;;5170614;28;20416;-75
2022/03/16 07:44:51;;;;;;;56.67;31.92;;;3.70;99.90;;;;;;5188323;28;20030;-76
2022/03/16 07:47:25;;;;;;;54.75;33.05;;;3.80;99.90;;;;;;5188116;28;20030;-75
2022/03/16 07:49:56;;;;;;;56.45;32.90;;;3.80;99.90;;;;;;5180317;28;20026;-73
2022/03/16 07:52:27;;;;;;;52.78;32.13;;;3.90;99.90;;;;;;5188138;28;20030;-74
2022/03/16 07:54:58;;;;;;;54.40;32.67;;;4.00;99.90;;;;;;5188031;28;20029;-75
2022/03/16 07:57:28;;;;;;;58.92;33.28;;;4.10;99.90;;;;;;5188032;28;20030;-74
2022/03/16 08:00:00;;;;;;;60.38;31.08;;;4.10;99.90;;;;;;5166756;28;20458;-74
2022/03/16 08:02:31;;;;;;;49.78;30.73;;;4.20;99.90;;;;;;5168062;28;20023;-74
2022/03/16 08:05:02;;;;;;;49.25;28.42;;;4.30;99.90;;;;;;5168015;28;20092;-74
2022/03/16 08:07:33;;;;;;;50.17;30.42;;;4.40;99.90;;;;;;5166648;28;20069;-73
2022/03/16 08:10:05;;;;;;;61.28;30.67;;;4.50;99.90;;;;;;5168299;28;20161;-74
2022/03/16 08:12:36;;;;;;;55.20;30.77;;;4.50;99.90;;;;;;5166863;28;20022;-73
2022/03/16 08:15:07;;;;;;;47.30;29.75;;;4.60;99.90;;;;;;5167887;28;20041;-73
2022/03/16 08:17:38;;;;;;;49.05;28.35;;;4.70;99.90;;;;;;5167659;28;20109;-73
2022/03/16 08:20:09;;;;;;;46.30;28.58;;;4.80;99.90;;;;;;5167167;28;20216;-73
2022/03/16 08:22:40;;;;;;;57.42;34.42;;;4.80;99.90;;;;;;5167775;28;20023;-74
2022/03/16 08:25:12;;;;;;;50.15;30.02;;;4.80;99.90;;;;;;5167632;28;20363;-73
2022/03/16 08:27:43;;;;;;;54.72;32.65;;;4.90;99.90;;;;;;5167515;28;20026;-72
2022/03/16 08:30:16;;;;;;;55.17;32.42;;;5.00;99.90;;;;;;5167816;28;20446;-73
2022/03/16 08:32:46;;;;;;;50.80;28.48;;;5.00;99.90;;;;;;5167539;28;20025;-72
2022/03/16 08:35:17;;;;;;;51.28;27.55;;;5.00;99.90;;;;;;5167228;28;20106;-72
2022/03/16 08:37:48;;;;;;;43.72;26.17;;;5.10;99.90;;;;;;5166639;28;20022;-74
2022/03/16 08:40:20;;;;;;;62.15;33.97;;;5.10;99.90;;;;;;5166184;28;20125;-74
2022/03/16 08:42:52;;;;;;;167.77;90.20;;;5.20;99.90;;;;;;5167513;28;20084;-74
2022/03/16 08:45:23;;;;;;;54.65;30.80;;;5.30;99.90;;;;;;5165897;28;20031;-74
2022/03/16 08:47:54;;;;;;;63.13;36.22;;;5.30;99.90;;;;;;5167332;28;20366;-73
2022/03/16 08:50:26;;;;;;;41.72;25.00;;;5.30;99.90;;;;;;5166786;28;20459;-74
2022/03/16 08:52:57;;;;;;;46.80;27.63;;;5.40;99.90;;;;;;5165457;28;20538;-74
2022/03/16 08:55:28;;;;;;;43.35;25.88;;;5.40;99.90;;;;;;5166141;28;20109;-74
2022/03/16 08:57:59;;;;;;;38.28;23.90;;;5.50;99.90;;;;;;5166197;28;20109;-75
2022/03/16 09:00:30;;;;;;;43.17;24.52;;;5.60;99.90;;;;;;5180227;28;20061;-74
2022/03/16 09:03:01;;;;;;;41.70;23.65;;;5.60;99.90;;;;;;5186451;28;20092;-74
2022/03/16 09:05:32;;;;;;;43.65;22.85;;;5.60;99.90;;;;;;5186235;28;20113;-74
2022/03/16 09:08:03;;;;;;;37.58;20.95;;;5.60;99.90;;;;;;5186403;28;20381;-76
2022/03/16 09:10:34;;;;;;;34.05;21.65;;;5.70;99.90;;;;;;5168989;28;20026;-74
2022/03/16 09:13:06;;;;;;;36.72;21.50;;;5.80;99.90;;;;;;5186848;28;20541;-74
2022/03/16 09:15:37;;;;;;;30.95;19.02;;;5.80;99.90;;;;;;5169233;28;20026;-76
2022/03/16 09:18:09;;;;;;;30.92;20.80;;;5.90;99.90;;;;;;5186355;28;20034;-76
2022/03/16 09:20:40;;;;;;;28.98;19.17;;;5.90;99.90;;;;;;5186512;28;20021;-72
2022/03/16 09:23:11;;;;;;;30.73;18.55;;;5.90;99.90;;;;;;5187056;28;20080;-74
2022/03/16 09:25:42;;;;;;;28.50;17.98;;;6.00;99.90;;;;;;5168929;28;20030;-76
2022/03/16 09:28:12;;;;;;;30.40;19.10;;;6.00;99.90;;;;;;5168845;28;20429;-76
2022/03/16 09:30:43;;;;;;;29.23;18.92;;;6.10;99.90;;;;;;5186467;28;20030;-78
2022/03/16 09:33:14;;;;;;;31.27;19.55;;;6.30;99.90;;;;;;5186754;28;20041;-75
2022/03/16 09:35:45;;;;;;;34.05;19.15;;;6.20;99.90;;;;;;5168821;28;20438;-76
2022/03/16 09:38:16;;;;;;;28.13;19.13;;;6.30;99.90;;;;;;5186395;28;20117;-77
2022/03/16 09:41:01;;;;;;;35.22;19.58;;;6.30;99.90;;;;;;5186263;28;20033;-75
2022/03/16 09:43:33;;;;;;;28.95;18.10;;;6.40;99.90;;;;;;5186871;28;20032;-74
2022/03/16 09:46:04;;;;;;;34.83;18.73;;;6.40;99.90;;;;;;5168801;28;20409;-76
2022/03/16 09:48:37;;;;;;;35.20;20.10;;;6.50;99.90;;;;;;5186373;28;20129;-76
2022/03/16 09:51:10;;;;;;;32.05;19.08;;;6.50;99.90;;;;;;5168868;28;20402;-76
2022/03/16 09:53:41;;;;;;;31.80;17.75;;;6.60;99.90;;;;;;5186203;28;20033;-76
2022/03/16 09:56:12;;;;;;;29.88;17.75;;;6.60;99.90;;;;;;5186264;28;20382;-75
2022/03/16 09:58:43;;;;;;;27.10;16.63;;;6.50;99.90;;;;;;5185421;28;20045;-76
2022/03/16 10:01:13;;;;;;;25.95;16.98;;;6.70;99.90;;;;;;5186185;28;20034;-74
2022/03/16 10:03:49;;;;;;;28.00;17.88;;;6.70;99.90;;;;;;5186040;28;20076;-77
2022/03/16 10:06:24;;;;;;;28.85;17.38;;;6.70;99.90;;;;;;5185983;28;20061;-76
2022/03/16 10:14:40;;;;;;;31.92;17.92;;;7.00;99.90;;;;;;5148520;28;20049;-75
2022/03/16 10:20:02;;;;;;;29.00;17.38;;;6.80;99.90;;;;;;5170797;28;20425;-75
2022/03/16 10:22:37;;;;;;;28.15;16.42;;;6.80;99.90;;;;;;5185552;28;20025;-75
2022/03/16 10:25:10;;;;;;;25.80;16.35;;;6.80;99.90;;;;;;5186030;28;20026;-76
2022/03/16 10:27:41;;;;;;;29.92;17.88;;;6.90;99.90;;;;;;5185794;28;20018;-75
2022/03/16 10:30:13;;;;;;;29.58;17.58;;;6.90;99.90;;;;;;5185548;28;20042;-75
2022/03/16 10:32:53;;;;;;;26.15;17.58;;;6.90;99.90;;;;;;5185839;28;20022;-75
2022/03/16 10:35:25;;;;;;;29.00;18.10;;;6.90;99.90;;;;;;5185702;28;20113;-75
2022/03/16 10:38:12;;;;;;;25.90;17.08;;;6.90;99.90;;;;;;5185593;28;20091;-75
2022/03/16 10:40:43;;;;;;;24.48;15.32;;;7.10;99.90;;;;;;5168265;28;20034;-75
2022/03/16 10:49:10;;;;;;;27.70;16.02;;;7.20;99.90;;;;;;5190431;28;20065;-74
2022/03/16 10:51:43;;;;;;;29.80;17.25;;;7.20;99.90;;;;;;5189695;28;20030;-75
2022/03/16 10:54:14;;;;;;;30.48;16.65;;;7.30;99.90;;;;;;5189888;28;20018;-75
2022/03/16 10:56:47;;;;;;;25.85;16.08;;;7.40;99.90;;;;;;5189724;28;20044;-74
2022/03/16 10:59:19;;;;;;;30.60;17.60;;;7.60;99.90;;;;;;5189134;28;20088;-75
2022/03/16 11:01:50;;;;;;;30.85;16.33;;;7.60;99.90;;;;;;5189402;28;20105;-73
2022/03/16 11:04:24;;;;;;;28.17;17.48;;;7.70;99.90;;;;;;5189420;28;20037;-75
2022/03/16 11:06:57;;;;;;;28.35;18.55;;;7.70;99.90;;;;;;5171700;28;20053;-73
2022/03/16 11:09:30;;;;;;;30.85;17.90;;;7.80;99.90;;;;;;5189408;28;20026;-74
2022/03/16 11:14:54;;;;;;;32.78;18.42;;;7.60;99.90;;;;;;5189733;28;20498;-75
2022/03/16 11:17:26;;;;;;;33.78;17.65;;;7.60;99.90;;;;;;5189223;28;20084;-76
2022/03/16 11:19:59;;;;;;;29.15;15.77;;;7.90;99.90;;;;;;5189239;28;20042;-75
2022/03/16 11:22:34;;;;;;;29.42;17.52;;;7.70;99.90;;;;;;5189289;28;20422;-74
2022/03/16 11:25:11;;;;;;;30.95;16.48;;;7.90;99.90;;;;;;5189246;28;20382;-75
2022/03/16 11:27:51;;;;;;;26.88;16.83;;;8.30;99.90;;;;;;5171950;28;20096;-76
2022/03/16 11:30:36;;;;;;;35.90;18.90;;;8.50;99.90;;;;;;5189070;28;20482;-75
2022/03/16 11:33:12;;;;;;;27.17;16.77;;;8.20;99.90;;;;;;5189191;28;20025;-73
2022/03/16 11:35:50;;;;;;;29.70;16.30;;;8.30;99.90;;;;;;5188396;28;20018;-74
2022/03/16 11:38:21;;;;;;;27.40;16.67;;;8.10;99.90;;;;;;5176074;28;20030;-74
2022/03/16 11:40:54;;;;;;;27.17;17.55;;;8.50;99.90;;;;;;5189212;28;20934;-73
2022/03/16 11:43:26;;;;;;;30.90;18.17;;;8.30;99.90;;;;;;5188789;28;20510;-73
2022/03/16 11:45:58;;;;;;;32.58;19.40;;;8.30;99.90;;;;;;5188684;28;20045;-72
2022/03/16 11:48:33;;;;;;;33.17;18.67;;;8.30;99.90;;;;;;5188591;28;20041;-75
2022/03/16 11:51:09;;;;;;;36.65;18.02;;;8.30;99.90;;;;;;5170893;28;20113;-73
2022/03/16 11:53:47;;;;;;;34.55;18.75;;;8.50;99.90;;;;;;5169923;28;20035;-72
2022/03/16 11:56:25;;;;;;;35.10;18.77;;;8.40;99.90;;;;;;5188547;28;20026;-73
2022/03/16 11:58:59;;;;;;;33.97;19.73;;;8.40;99.90;;;;;;5170463;28;20034;-74
2022/03/16 12:01:37;;;;;;;32.15;19.15;;;8.30;99.90;;;;;;5170875;28;20045;-74
2022/03/16 12:04:29;;;;;;;33.78;18.58;;;8.30;99.90;;;;;;5188443;28;20458;-74
2022/03/16 12:07:06;;;;;;;34.30;18.58;;;8.10;99.90;;;;;;5188108;28;20041;-74
2022/03/16 12:09:39;;;;;;;31.60;18.48;;;8.10;99.90;;;;;;5188056;28;20045;-75
2022/03/16 12:15:31;;;;;;;33.38;18.88;;;8.10;99.90;;;;;;5188500;28;20029;-75
2022/03/16 12:18:02;;;;;;;51.60;23.70;;;8.20;99.90;;;;;;5173177;28;20026;-75
2022/03/16 12:20:41;;;;;;;34.50;18.63;;;8.10;99.90;;;;;;5170457;28;20552;-75
2022/03/16 12:23:38;;;;;;;37.33;20.20;;;8.20;99.90;;;;;;5187914;28;20381;-74
2022/03/16 12:26:09;;;;;;;29.90;18.63;;;8.10;99.90;;;;;;5173652;28;20033;-74
2022/03/16 12:28:56;;;;;;;43.65;22.38;;;8.10;99.90;;;;;;5187572;28;20038;-74
2022/03/16 12:31:30;;;;;;;48.72;22.85;;;8.00;99.90;;;;;;5187895;28;20521;-75
2022/03/16 12:34:01;;;;;;;29.33;17.88;;;8.00;99.90;;;;;;5187652;28;20022;-73
2022/03/16 12:36:34;;;;;;;38.25;19.90;;;8.00;99.90;;;;;;5187193;28;20097;-73
2022/03/16 12:39:08;;;;;;;65.72;27.48;;;8.00;99.90;;;;;;5187483;28;20073;-72
2022/03/16 12:44:36;;;;;;;35.60;17.83;;;7.90;99.90;;;;;;5187456;28;20069;-74
2022/03/16 12:47:25;;;;;;;32.47;17.08;;;7.80;99.90;;;;;;5187637;28;20030;-74
2022/03/16 12:49:56;;;;;;;29.20;17.63;;;7.90;99.90;;;;;;5169775;28;20017;-74
2022/03/16 12:52:27;;;;;;;49.80;22.58;;;7.80;99.90;;;;;;5186923;28;20034;-74
2022/03/16 12:54:58;;;;;;;28.35;16.65;;;7.70;99.90;;;;;;5169808;28;20075;-74
2022/03/16 12:57:29;;;;;;;29.67;17.60;;;7.90;99.90;;;;;;5183744;28;20034;-74
2022/03/16 13:00:05;;;;;;;31.08;18.25;;;7.80;99.90;;;;;;5181577;28;20172;-73
2022/03/16 13:02:35;;;;;;;36.85;19.23;;;7.70;99.90;;;;;;5166895;28;20037;-73
2022/03/16 13:05:10;;;;;;;38.40;18.33;;;7.80;99.90;;;;;;5162396;28;20030;-73
2022/03/16 13:07:41;;;;;;;37.78;17.15;;;7.80;99.90;;;;;;5187028;28;20014;-73
2022/03/16 13:10:12;;;;;;;55.95;27.13;;;7.70;99.90;;;;;;5186955;28;20036;-74
2022/03/16 13:12:56;;;;;;;29.42;17.48;;;7.70;99.90;;;;;;5187266;28;20030;-73
2022/03/16 13:15:27;;;;;;;26.88;16.08;;;7.70;99.90;;;;;;5187032;28;20018;-73
2022/03/16 13:17:58;;;;;;;27.90;16.33;;;7.70;99.90;;;;;;5186961;28;20025;-73